Terminal Aerodrome Forecast
Issued by NWS

Home | Current Version | Previous Version | Text Only | Print | Product List | Glossary On
Versions: 1 2 3 4 5 6 7 8 9 10 11 12 13 14 15 16 17 18 19 20 21 22 23 24 25 26 27 28 29
000
FTUS41 KBTV 172300
TAFPBG
TAF
KPBG 172321Z 1800/1824 VRB02KT P6SM BKN070
     FM180700 VRB03KT P6SM VCSH OVC040
     FM181100 34003KT P6SM VCSH BKN030
     FM181400 36006KT P6SM BKN040
     FM181800 03006KT P6SM SCT040=

USA.gov is the U.S. government's official web portal to all federal, state and local government web resources and services.